Time;durP1;ratioP1;P1;durP2;ratioP2;P2;SDS_P1;SDS_P2;PMS_P1;PMS_P2;Temp;Humidity;BMP_temperature;BMP_pressure;BME280_temperature;BME280_humidity;BME280_pressure;Samples;Min_cycle;Max_cycle;Signal;HPM_P1;HPM_P2
2023/11/09 00:00:56;;;;;;;17.80;11.60;;;;;;;6.91;100.00;100215.89;112595;1239;21989;-78
2023/11/09 00:04:03;;;;;;;24.60;13.90;;;;;;;6.80;100.00;100214.09;112803;1239;22111;-78
2023/11/09 00:06:57;;;;;;;19.30;14.00;;;;;;;6.69;100.00;100214.85;112863;1239;22788;-80
2023/11/09 00:10:02;;;;;;;;;;;;;;;;;;;;;
2023/11/09 00:12:46;;;;;;;22.80;16.20;;;;;;;6.49;100.00;100218.45;112498;1238;22127;-78
2023/11/09 00:15:39;;;;;;;20.70;16.70;;;;;;;6.39;100.00;100215.05;112830;1238;21938;-79
2023/11/09 00:18:33;;;;;;;20.60;15.30;;;;;;;6.33;100.00;100212.94;112798;1238;23591;-78
2023/11/09 00:21:28;;;;;;;25.50;17.20;;;;;;;6.30;100.00;100206.09;112675;1239;21957;-78
2023/11/09 00:24:09;;;;;;;21.70;16.90;;;;;;;6.28;100.00;100208.22;111950;1245;23127;-78
2023/11/09 00:26:56;;;;;;;21.10;15.40;;;;;;;6.25;100.00;100212.08;112063;1240;21943;-78
2023/11/09 00:29:50;;;;;;;21.50;15.40;;;;;;;6.21;100.00;100212.34;112739;1240;23024;-78
2023/11/09 00:32:30;;;;;;;18.90;16.30;;;;;;;6.15;100.00;100214.53;112156;1244;21953;-77
2023/11/09 00:35:23;;;;;;;23.10;19.60;;;;;;;6.12;100.00;100210.45;111856;1247;23045;-79
2023/11/09 00:38:28;;;;;;;22.30;19.30;;;;;;;6.10;100.00;100211.55;111697;1247;22970;-78
2023/11/09 00:41:10;;;;;;;27.70;19.90;;;;;;;6.05;100.00;100210.95;111853;1248;23688;-78
2023/11/09 00:44:09;;;;;;;;;;;;;;;6.00;100.00;100202.77;112155;1244;21935;-80
2023/11/09 00:46:46;;;;;;;26.90;22.70;;;;;;;5.87;100.00;100199.91;112316;1244;21942;-79
2023/11/09 00:49:24;;;;;;;30.40;23.70;;;;;;;5.84;100.00;100203.25;111592;1249;23077;-79
2023/11/09 00:52:02;;;;;;;29.70;24.10;;;;;;;5.83;100.00;100206.70;111984;1244;21977;-77
2023/11/09 00:54:43;;;;;;;27.60;23.70;;;;;;;5.79;100.00;100209.05;112750;1239;21957;-78
2023/11/09 00:57:34;;;;;;;27.00;24.10;;;;;;;5.70;100.00;100205.95;112512;1239;21984;-78
2023/11/09 01:00:14;;;;;;;34.30;25.90;;;;;;;5.66;100.00;100204.13;112784;1239;24508;-79
2023/11/09 01:03:09;;;;;;;39.40;33.30;;;;;;;5.66;100.00;100204.13;112697;1239;23082;-77
2023/11/09 01:05:57;;;;;;;27.70;24.50;;;;;;;5.64;100.00;100199.85;112183;1245;21952;-77
2023/11/09 01:08:54;;;;;;;;;;;;;;;;;;;;;
2023/11/09 01:11:29;;;;;;;29.30;24.10;;;;;;;5.60;100.00;100197.34;111730;1245;22973;-78
2023/11/09 01:14:20;;;;;;;28.40;23.60;;;;;;;5.59;100.00;100198.05;112317;1240;23545;-78
2023/11/09 01:17:02;;;;;;;29.50;23.50;;;;;;;5.56;100.00;100196.39;112661;1241;21953;-79
2023/11/09 01:19:54;;;;;;;30.70;25.40;;;;;;;5.50;100.00;100194.25;112049;1246;22872;-78
2023/11/09 01:22:41;;;;;;;32.20;24.70;;;;;;;5.44;100.00;100199.02;111913;1246;21991;-79
2023/11/09 01:25:28;;;;;;;31.90;24.90;;;;;;;5.43;100.00;100195.95;112266;1239;23789;-78
2023/11/09 01:28:12;;;;;;;32.80;25.00;;;;;;;5.43;100.00;100190.23;112770;1239;22964;-80
2023/11/09 01:30:54;;;;;;;35.20;28.80;;;;;;;5.41;100.00;100187.86;112493;1239;24455;-77
2023/11/09 01:33:42;;;;;;;43.90;31.30;;;;;;;5.39;100.00;100187.75;112545;1239;22071;-78
2023/11/09 01:36:22;;;;;;;49.40;33.90;;;;;;;5.35;100.00;100187.98;112685;1239;22344;-78
2023/11/09 01:39:00;;;;;;;32.90;26.30;;;;;;;5.32;100.00;100188.05;112577;1239;21961;-79
2023/11/09 01:41:48;;;;;;;28.30;21.50;;;;;;;5.29;100.00;100183.96;112791;1239;22698;-78
2023/11/09 01:44:42;;;;;;;28.80;23.00;;;;;;;5.26;100.00;100183.68;112838;1239;22834;-79
2023/11/09 01:47:15;;;;;;;26.30;20.20;;;;;;;5.22;100.00;100182.52;112809;1239;21977;-78
2023/11/09 01:50:15;;;;;;;28.40;21.30;;;;;;;5.21;100.00;100187.56;112669;1234;21998;-77
2023/11/09 01:53:10;;;;;;;25.00;21.20;;;;;;;5.14;100.00;100180.45;112435;1241;22415;-79
2023/11/09 01:56:06;;;;;;;25.10;20.40;;;;;;;5.09;100.00;100177.42;112419;1241;24274;-79
2023/11/09 01:59:02;;;;;;;27.90;21.90;;;;;;;5.06;100.00;100179.71;112548;1239;21956;-78
2023/11/09 02:01:42;;;;;;;26.90;22.40;;;;;;;5.02;100.00;100178.92;112775;1239;23666;-77
2023/11/09 02:04:41;;;;;;;27.40;22.90;;;;;;;4.98;100.00;100178.30;112259;1245;21942;-74
2023/11/09 02:07:30;;;;;;;26.40;22.80;;;;;;;4.95;100.00;100178.36;112385;1240;23027;-79
2023/11/09 02:10:22;;;;;;;31.10;22.70;;;;;;;4.94;100.00;100177.52;112403;1241;23234;-79
2023/11/09 02:12:59;;;;;;;24.30;21.00;;;;;;;4.92;100.00;100175.30;112271;1241;21964;-76
2023/11/09 02:15:54;;;;;;;28.20;22.90;;;;;;;4.90;100.00;100177.76;112670;1240;23782;-79
2023/11/09 02:18:44;;;;;;;28.50;20.80;;;;;;;4.75;100.00;100157.16;112653;1241;21990;-78
2023/11/09 02:21:50;;;;;;;;;;;;;;;4.79;100.00;100176.73;112901;1234;22054;-77
2023/11/09 02:24:34;;;;;;;23.30;19.30;;;;;;;4.66;100.00;100178.66;113295;1234;21936;-78
2023/11/09 02:27:24;;;;;;;25.80;18.70;;;;;;;4.64;100.00;100178.70;113305;1234;21941;-79
2023/11/09 02:30:10;;;;;;;27.50;19.20;;;;;;;4.64;100.00;100180.24;113248;1234;22638;-80
2023/11/09 02:32:50;;;;;;;25.70;18.80;;;;;;;4.65;100.00;100175.75;112317;1241;22744;-78
2023/11/09 02:35:52;;;;;;;25.10;20.20;;;;;;;4.65;100.00;100175.58;112562;1241;22526;-78
2023/11/09 02:38:37;;;;;;;21.80;19.30;;;;;;;4.62;100.00;100175.11;112052;1244;21963;-77
2023/11/09 02:41:44;;;;;;;21.20;18.20;;;;;;;4.61;100.00;100173.92;112120;1246;23703;-78
2023/11/09 02:44:23;;;;;;;23.80;18.20;;;;;;;4.61;100.00;100170.48;111347;1252;22467;-77
2023/11/09 02:47:02;;;;;;;20.90;16.80;;;;;;;4.60;100.00;100169.29;111320;1251;23801;-78
2023/11/09 02:49:51;;;;;;;20.80;16.90;;;;;;;4.57;100.00;100166.58;111364;1251;21965;-77
2023/11/09 02:52:38;;;;;;;20.80;15.80;;;;;;;4.52;100.00;100170.80;111973;1246;23017;-79
2023/11/09 02:55:47;;;;;;;;;;;;;;;;;;;;;
2023/11/09 02:59:18;;;;;;;;;;;;;;;;;;;;;
2023/11/09 03:02:27;;;;;;;19.30;15.70;;;;;;;4.21;100.00;100163.85;111640;1246;21952;-81
2023/11/09 03:08:28;;;;;;;20.90;15.40;;;;;;;4.04;100.00;100165.64;111800;1246;22053;-79
2023/11/09 03:11:27;;;;;;;19.50;14.40;;;;;;;4.02;100.00;100166.54;112147;1246;21962;-78
2023/11/09 03:14:26;;;;;;;18.20;15.60;;;;;;;4.00;100.00;100158.99;111793;1246;23696;-79
2023/11/09 03:17:10;;;;;;;18.90;14.70;;;;;;;3.96;100.00;100155.95;112768;1239;21981;-79
2023/11/09 03:20:08;;;;;;;;;;;;;;;;;;;;;
2023/11/09 03:25:50;;;;;;;21.70;16.30;;;;;;;3.84;100.00;100157.66;112361;1245;21950;-78
2023/11/09 03:28:25;;;;;;;17.80;16.00;;;;;;;3.75;100.00;100145.38;111769;1245;22953;-80
2023/11/09 03:31:04;;;;;;;18.90;15.80;;;;;;;3.81;100.00;100153.21;112325;1245;22051;-77
2023/11/09 03:33:43;;;;;;;22.50;17.40;;;;;;;3.81;100.00;100155.45;111933;1245;23709;-77
2023/11/09 03:36:38;;;;;;;23.20;15.10;;;;;;;3.78;100.00;100148.61;111574;1249;23082;-78
2023/11/09 03:39:17;;;;;;;20.10;16.60;;;;;;;3.74;100.00;100148.15;111417;1249;21982;-77
2023/11/09 03:41:58;;;;;;;23.90;16.90;;;;;;;3.72;100.00;100143.70;112138;1246;21966;-80
2023/11/09 03:44:53;;;;;;;62.10;46.70;;;;;;;3.71;100.00;100138.20;111514;1251;23056;-80
2023/11/09 03:48:00;;;;;;;;;;;;;;;;;;;;;
2023/11/09 03:50:50;;;;;;;20.90;16.90;;;;;;;3.66;100.00;100117.80;111397;1251;23707;-79
2023/11/09 03:53:47;;;;;;;22.40;16.30;;;;;;;3.66;100.00;100110.39;111798;1246;21960;-77
2023/11/09 03:56:32;;;;;;;24.20;18.20;;;;;;;3.64;100.00;100116.60;111767;1247;23616;-79
2023/11/09 03:59:22;;;;;;;23.40;17.20;;;;;;;3.64;100.00;100118.15;111935;1247;21963;-78
2023/11/09 04:02:13;;;;;;;22.60;17.50;;;;;;;3.65;100.00;100116.08;111886;1242;21959;-77
2023/11/09 04:04:47;;;;;;;20.20;16.30;;;;;;;3.68;100.00;100110.88;112088;1242;24146;-78
2023/11/09 04:07:27;;;;;;;18.50;16.40;;;;;;;3.72;100.00;100109.11;112409;1241;21971;-78
2023/11/09 04:10:22;;;;;;;19.50;16.10;;;;;;;3.72;100.00;100112.54;112501;1241;23705;-79
2023/11/09 04:16:01;;;;;;;20.20;14.80;;;;;;;3.77;100.00;100106.28;112464;1241;23195;-78
2023/11/09 04:18:51;;;;;;;18.70;15.40;;;;;;;3.76;100.00;100100.79;112472;1240;22653;-77
2023/11/09 04:21:49;;;;;;;21.90;15.60;;;;;;;3.76;100.00;100096.66;112429;1241;21939;-79
2023/11/09 04:24:41;;;;;;;18.50;14.30;;;;;;;3.75;100.00;100092.36;112718;1241;23703;-77
2023/11/09 04:27:47;;;;;;;16.60;13.80;;;;;;;3.74;100.00;100088.25;112146;1245;21974;-78
2023/11/09 04:30:33;;;;;;;19.90;15.10;;;;;;;3.72;100.00;100085.18;112261;1245;21954;-80
2023/11/09 04:33:09;;;;;;;61.30;54.00;;;;;;;3.71;100.00;100079.86;111983;1241;24359;-78
2023/11/09 04:35:51;;;;;;;24.60;20.80;;;;;;;3.71;100.00;100079.67;112278;1244;23044;-79
2023/11/09 04:39:03;;;;;;;18.20;14.80;;;;;;;3.72;100.00;100084.50;112136;1244;22980;-79
2023/11/09 04:41:51;;;;;;;18.70;14.40;;;;;;;3.70;100.00;100087.13;112214;1244;21964;-78
2023/11/09 04:44:33;;;;;;;18.70;14.60;;;;;;;3.70;100.00;100087.95;111649;1243;22447;-78
2023/11/09 04:47:25;;;;;;;17.90;14.40;;;;;;;3.70;100.00;100080.56;111702;1248;23092;-79
2023/11/09 04:50:33;;;;;;;;;;;;;;;;;;;;;
2023/11/09 04:53:43;;;;;;;17.50;14.20;;;;;;;3.66;100.00;100070.98;111930;1245;21953;-79
2023/11/09 04:56:38;;;;;;;17.40;13.50;;;;;;;3.68;100.00;100073.52;111795;1245;22016;-79
2023/11/09 05:08:20;;;;;;;18.30;14.00;;;;;;;3.75;100.00;100062.07;112663;1241;23634;-76
2023/11/09 05:10:57;;;;;;;18.00;14.10;;;;;;;3.77;100.00;100059.30;111888;1247;22027;-79
2023/11/09 05:13:36;;;;;;;13.20;11.50;;;;;;;3.76;100.00;100061.55;111427;1247;21963;-78
2023/11/09 05:16:45;;;;;;;16.70;13.00;;;;;;;3.76;100.00;100061.04;111917;1247;22000;-78
2023/11/09 05:19:27;;;;;;;19.60;11.60;;;;;;;3.76;100.00;100057.42;111963;1247;24338;-79
2023/11/09 05:23:43;;;;;;;14.00;11.90;;;;;;;3.73;100.00;100051.95;111289;1252;23633;-80
2023/11/09 05:26:53;;;;;;;16.20;13.10;;;;;;;3.68;100.00;100055.63;111272;1252;22434;-79
2023/11/09 05:29:48;;;;;;;17.40;14.60;;;;;;;3.63;100.00;100055.02;111294;1255;23651;-80
2023/11/09 05:32:34;;;;;;;22.40;14.50;;;;;;;3.63;100.00;100050.70;111032;1258;21993;-80
2023/11/09 05:35:57;;;;;;;15.60;13.60;;;;;;;3.64;100.00;100048.29;110854;1256;21960;-77
2023/11/09 05:38:55;;;;;;;18.10;12.80;;;;;;;3.63;100.00;100052.77;110085;1268;23821;-79
2023/11/09 05:41:57;;;;;;;16.60;13.00;;;;;;;3.64;100.00;100049.14;109482;1268;22215;-79
2023/11/09 05:48:00;;;;;;;14.20;11.20;;;;;;;3.64;100.00;100046.39;109280;1270;23777;-80
2023/11/09 05:50:45;;;;;;;17.10;11.60;;;;;;;3.66;100.00;100046.20;109366;1269;22576;-80
2023/11/09 05:53:29;;;;;;;19.50;11.60;;;;;;;3.68;100.00;100043.09;109592;1269;22349;-79
2023/11/09 05:56:35;;;;;;;13.20;11.90;;;;;;;3.68;100.00;100046.00;109285;1272;23644;-79
2023/11/09 05:59:40;;;;;;;17.60;11.00;;;;;;;3.69;100.00;100048.40;109253;1270;22839;-78
2023/11/09 06:02:44;;;;;;;;;;;;;;;3.69;100.00;100046.67;109761;1265;23668;-78
2023/11/09 06:05:46;;;;;;;23.90;13.80;;;;;;;3.62;100.00;100041.78;110231;1260;21996;-76
2023/11/09 06:08:32;;;;;;;24.00;14.40;;;;;;;3.64;100.00;100040.56;110909;1253;23629;-78
2023/11/09 06:11:29;;;;;;;23.70;17.30;;;;;;;3.67;100.00;100041.89;111230;1253;22445;-80
2023/11/09 06:14:13;;;;;;;29.80;20.60;;;;;;;3.71;100.00;100040.12;111629;1249;21957;-80
2023/11/09 06:16:57;;;;;;;34.90;23.40;;;;;;;3.73;100.00;100039.21;112358;1236;22557;-77
2023/11/09 06:19:44;;;;;;;29.70;19.30;;;;;;;3.75;100.00;100040.92;112901;1238;21947;-80
2023/11/09 06:22:46;;;;;;;28.50;15.60;;;;;;;3.69;100.00;100024.99;112783;1238;21946;-80
2023/11/09 06:25:55;;;;;;;19.50;13.30;;;;;;;3.81;100.00;100039.95;112828;1238;21993;-80
2023/11/09 06:29:07;;;;;;;22.90;14.60;;;;;;;3.85;100.00;100034.73;112958;1238;21958;-78
2023/11/09 06:31:51;;;;;;;22.40;13.30;;;;;;;3.87;100.00;100031.08;112849;1238;22720;-79
2023/11/09 06:34:59;;;;;;;20.20;13.40;;;;;;;3.91;100.00;100031.02;112898;1238;23746;-79
2023/11/09 06:38:08;;;;;;;24.70;15.20;;;;;;;3.95;100.00;100022.35;113336;1234;22071;-80
2023/11/09 06:40:50;;;;;;;21.90;14.80;;;;;;;3.97;100.00;100023.52;113273;1234;21949;-79
2023/11/09 06:43:25;;;;;;;23.80;15.10;;;;;;;4.00;100.00;100026.23;112253;1242;21944;-79
2023/11/09 06:46:03;;;;;;;26.10;14.50;;;;;;;4.04;100.00;100027.72;112097;1242;22005;-80
2023/11/09 06:48:40;;;;;;;20.00;13.20;;;;;;;4.05;100.00;100032.35;112237;1242;23054;-79
2023/11/09 06:51:16;;;;;;;17.40;12.60;;;;;;;4.06;100.00;100035.43;112624;1242;21992;-80
2023/11/09 06:54:31;;;;;;;20.60;12.00;;;;;;;4.06;100.00;100030.27;112271;1242;21984;-80
2023/11/09 06:57:13;;;;;;;;;;;;;;;4.06;100.00;100022.87;112416;1242;23568;-80
2023/11/09 06:59:56;;;;;;;24.00;14.30;;;;;;;3.98;100.00;100014.73;112192;1242;21987;-78
2023/11/09 07:02:31;;;;;;;22.30;13.50;;;;;;;3.98;100.00;100014.73;112549;1240;22906;-79
2023/11/09 07:05:14;;;;;;;23.60;13.20;;;;;;;4.03;100.00;100013.79;112797;1240;23619;-80
2023/11/09 07:07:51;;;;;;;15.70;11.10;;;;;;;4.08;100.00;100009.55;112706;1240;21934;-82
2023/11/09 07:10:24;;;;;;;16.80;12.30;;;;;;;4.15;100.00;100017.20;112801;1241;23610;-79
2023/11/09 07:13:05;;;;;;;16.10;12.10;;;;;;;4.23;100.00;100026.02;112853;1241;22007;-80
2023/11/09 07:15:47;;;;;;;19.00;14.30;;;;;;;4.30;100.00;100028.33;112772;1241;21953;-78
2023/11/09 07:18:27;;;;;;;16.90;13.00;;;;;;;4.37;100.00;100023.55;113230;1240;21967;-82
2023/11/09 07:21:12;;;;;;;20.40;13.10;;;;;;;4.45;100.00;100021.00;113487;1234;22006;-82
2023/11/09 07:23:47;;;;;;;19.30;13.90;;;;;;;4.53;100.00;100022.91;113454;1234;21945;-81
2023/11/09 07:26:21;;;;;;;23.20;13.20;;;;;;;4.61;100.00;100022.08;113209;1234;23672;-79
2023/11/09 07:28:54;;;;;;;26.70;14.10;;;;;;;4.72;100.00;100022.40;112963;1241;22311;-82
2023/11/09 07:31:40;;;;;;;19.80;14.10;;;;;;;4.86;100.00;100026.27;113157;1238;21989;-80
2023/11/09 07:34:36;;;;;;;20.60;13.00;;;;;;;4.96;100.00;100023.13;113018;1241;23028;-80
2023/11/09 07:37:18;;;;;;;23.60;12.80;;;;;;;5.14;100.00;100030.70;112928;1241;21951;-80
2023/11/09 07:39:49;;;;;;;14.80;11.00;;;;;;;5.27;100.00;100023.36;113050;1234;23006;-89
2023/11/09 07:42:27;;;;;;;20.40;10.10;;;;;;;5.35;100.00;100021.64;112660;1238;22988;-81
2023/11/09 07:45:02;;;;;;;13.90;9.50;;;;;;;5.46;100.00;100023.64;111940;1246;21985;-79
2023/11/09 07:47:34;;;;;;;20.20;12.90;;;;;;;5.55;100.00;100026.55;112620;1241;21979;-78
2023/11/09 07:50:09;;;;;;;18.40;10.90;;;;;;;5.61;100.00;100028.31;112630;1241;23601;-81
2023/11/09 07:53:22;;;;;;;16.70;11.00;;;;;;;5.71;100.00;100020.16;112639;1241;21962;-80
2023/11/09 07:56:05;;;;;;;19.00;13.30;;;;;;;5.80;100.00;100015.45;112674;1242;21948;-79
2023/11/09 07:59:09;;;;;;;23.20;14.20;;;;;;;5.99;100.00;100012.95;112956;1241;21959;-79
2023/11/09 08:01:49;;;;;;;16.20;10.70;;;;;;;6.18;100.00;100005.57;112706;1241;23740;-80
2023/11/09 08:04:36;;;;;;;19.20;11.60;;;;;;;6.44;100.00;99998.35;113245;1235;21952;-78
2023/11/09 08:07:19;;;;;;;12.70;10.10;;;;;;;6.71;100.00;99988.13;113115;1239;22377;-80
2023/11/09 08:10:37;;;;;;;;;;;;;;;;;;;;;
2023/11/09 08:13:13;;;;;;;16.80;10.60;;;;;;;7.29;100.00;99981.61;112935;1230;21950;-75
2023/11/09 08:15:46;;;;;;;11.20;9.90;;;;;;;7.48;100.00;99958.34;113023;1238;23047;-75
2023/11/09 08:18:18;;;;;;;14.40;9.20;;;;;;;8.02;100.00;99978.43;113007;1237;23685;-77
2023/11/09 08:21:02;;;;;;;13.80;10.10;;;;;;;8.25;100.00;99977.13;112765;1242;22056;-80
2023/11/09 08:23:39;;;;;;;16.50;10.10;;;;;;;8.46;100.00;99979.73;112385;1242;21957;-81
2023/11/09 08:26:19;;;;;;;13.40;10.10;;;;;;;8.60;100.00;99980.11;112538;1242;21948;-75
2023/11/09 08:28:53;;;;;;;12.00;10.10;;;;;;;8.73;100.00;99971.67;112403;1242;23565;-76
2023/11/09 08:31:26;;;;;;;16.20;11.30;;;;;;;8.86;100.00;99966.68;108416;1242;5104687;-75
2023/11/09 08:34:00;;;;;;;17.20;11.00;;;;;;;8.97;100.00;99963.84;112255;1242;21949;-78
2023/11/09 08:36:39;;;;;;;14.00;10.40;;;;;;;9.03;100.00;99962.08;112290;1242;21973;-73
2023/11/09 08:39:22;;;;;;;12.60;7.80;;;;;;;9.11;100.00;99959.86;112697;1238;22740;-75
2023/11/09 08:41:57;;;;;;;14.80;9.20;;;;;;;9.28;100.00;99954.18;112332;1244;21927;-82
2023/11/09 08:44:35;;;;;;;12.70;9.00;;;;;;;9.49;100.00;99951.45;112221;1241;23732;-83
2023/11/09 08:47:13;;;;;;;19.80;8.60;;;;;;;9.67;100.00;99951.75;112601;1241;23700;-77
2023/11/09 08:50:01;;;;;;;11.20;8.20;;;;;;;9.82;100.00;99944.55;112622;1241;22585;-77
2023/11/09 08:52:45;;;;;;;13.50;7.70;;;;;;;9.94;100.00;99940.94;112330;1241;22714;-77
2023/11/09 08:55:23;;;;;;;13.40;8.10;;;;;;;9.96;100.00;99934.05;111892;1242;23018;-77
2023/11/09 08:58:06;;;;;;;11.60;7.70;;;;;;;10.05;100.00;99940.30;111631;1249;21965;-76
2023/11/09 09:00:46;;;;;;;18.00;8.00;;;;;;;10.09;100.00;99943.26;111483;1248;23242;-78
2023/11/09 09:03:18;;;;;;;12.90;8.10;;;;;;;10.05;100.00;99929.70;111852;1247;22617;-77
2023/11/09 09:05:57;;;;;;;14.30;8.70;;;;;;;10.13;100.00;99929.90;111839;1247;21951;-80
2023/11/09 09:08:47;;;;;;;13.90;9.60;;;;;;;10.25;100.00;99938.92;111880;1248;21962;-76
2023/11/09 09:11:33;;;;;;;19.10;10.40;;;;;;;10.27;100.00;99934.30;111795;1247;21973;-77
2023/11/09 09:14:11;;;;;;;15.40;10.60;;;;;;;10.34;100.00;99933.88;111919;1247;22851;-78
2023/11/09 09:16:42;;;;;;;13.00;9.10;;;;;;;10.43;100.00;99933.66;112348;1241;22149;-78
2023/11/09 09:19:12;;;;;;;12.80;8.90;;;;;;;10.49;100.00;99932.89;112952;1234;21943;-77
2023/11/09 09:21:42;;;;;;;16.00;8.20;;;;;;;10.53;100.00;99932.34;113339;1234;22173;-77
2023/11/09 09:24:11;;;;;;;13.80;8.70;;;;;;;10.50;100.00;99930.73;113259;1234;21935;-79
2023/11/09 09:27:32;;;;;;;13.30;8.00;;;;;;;10.37;100.00;99923.84;113444;1234;21941;-81
2023/11/09 09:30:24;;;;;;;13.90;8.70;;;;;;;10.26;100.00;99920.97;113573;1234;22949;-81
2023/11/09 09:33:42;;;;;;;;;;;;;;;;;;;;;
2023/11/09 09:36:15;;;;;;;15.60;10.10;;;;;;;10.07;100.00;99912.41;112934;1241;22730;-80
2023/11/09 09:38:51;;;;;;;16.30;10.30;;;;;;;10.04;100.00;99915.66;112529;1241;22418;-79
2023/11/09 09:41:57;;;;;;;;;;;;;;;9.99;100.00;99916.20;112907;1241;23568;-81
2023/11/09 09:44:54;;;;;;;;;;;;;;;;;;;;;
2023/11/09 09:47:57;;;;;;;17.30;10.90;;;;;;;10.14;100.00;99905.30;112776;1241;21928;-81
2023/11/09 09:50:52;;;;;;;11.60;8.80;;;;;;;10.45;100.00;99896.67;112941;1234;21991;-80
2023/11/09 09:53:26;;;;;;;14.70;8.30;;;;;;;10.72;100.00;99901.08;113382;1234;22257;-82
2023/11/09 09:56:11;;;;;;;12.80;7.70;;;;;;;10.96;100.00;99897.33;112879;1240;21911;-81
2023/11/09 09:58:56;;;;;;;13.70;9.00;;;;;;;11.19;100.00;99895.05;112600;1241;22096;-76
2023/11/09 10:01:27;;;;;;;15.40;10.40;;;;;;;11.39;100.00;99892.72;111699;1246;21956;-79
2023/11/09 10:03:58;;;;;;;10.30;7.00;;;;;;;11.57;100.00;99891.32;111818;1246;22947;-78
2023/11/09 10:06:29;;;;;;;15.00;8.70;;;;;;;11.72;100.00;99883.27;111650;1246;21983;-79
2023/11/09 10:09:07;;;;;;;11.70;7.90;;;;;;;11.87;100.00;99876.22;111870;1246;21952;-77
2023/11/09 10:11:49;;;;;;;10.50;6.90;;;;;;;12.09;100.00;99874.95;111802;1245;21927;-78
2023/11/09 10:14:25;;;;;;;12.00;7.40;;;;;;;12.24;100.00;99869.80;111836;1241;21960;-78
2023/11/09 10:16:59;;;;;;;12.90;7.40;;;;;;;12.33;100.00;99861.84;112513;1241;23002;-79
2023/11/09 10:19:46;;;;;;;;;;;;;;;12.39;100.00;99857.88;112228;1240;23641;-78
2023/11/09 10:22:19;;;;;;;12.40;7.30;;;;;;;12.35;100.00;99854.92;112794;1239;22209;-78
2023/11/09 10:24:54;;;;;;;11.70;8.00;;;;;;;12.41;100.00;99848.52;112240;1244;23613;-77
2023/11/09 10:27:34;;;;;;;12.20;7.80;;;;;;;12.41;100.00;99847.27;112148;1244;21954;-79
2023/11/09 10:30:07;;;;;;;10.70;6.50;;;;;;;12.50;100.00;99847.52;112146;1244;21969;-78
2023/11/09 10:32:39;;;;;;;10.50;7.20;;;;;;;12.56;100.00;99843.86;112599;1243;21988;-77
2023/11/09 10:35:16;;;;;;;12.20;6.90;;;;;;;12.63;100.00;99836.15;112177;1238;23120;-78
2023/11/09 10:37:51;;;;;;;9.40;6.60;;;;;;;12.73;100.00;99834.89;111938;1248;21967;-79
2023/11/09 10:40:33;;;;;;;11.50;6.20;;;;;;;12.81;100.00;99831.70;111873;1248;22092;-78
2023/11/09 10:43:19;;;;;;;18.20;7.10;;;;;;;12.83;100.00;99827.02;112148;1245;21967;-78
2023/11/09 10:46:02;;;;;;;10.10;6.80;;;;;;;12.83;100.00;99822.50;111672;1247;23598;-78
2023/11/09 10:48:34;;;;;;;13.50;7.10;;;;;;;12.90;100.00;99826.78;111919;1247;21944;-78
2023/11/09 10:51:17;;;;;;;26.90;7.20;;;;;;;13.03;100.00;99827.14;111421;1250;21968;-79
2023/11/09 10:54:03;;;;;;;11.80;7.00;;;;;;;13.05;100.00;99824.90;111200;1251;21960;-78
2023/11/09 10:56:38;;;;;;;12.70;8.70;;;;;;;12.99;100.00;99822.78;111483;1249;23708;-77
2023/11/09 10:59:15;;;;;;;15.10;8.60;;;;;;;12.99;100.00;99819.86;111085;1254;21988;-78
2023/11/09 11:02:02;;;;;;;16.00;8.60;;;;;;;12.98;100.00;99819.23;111240;1254;21984;-77
2023/11/09 11:04:40;;;;;;;16.30;9.80;;;;;;;13.05;100.00;99814.08;110817;1258;21989;-79
2023/11/09 11:07:12;;;;;;;20.70;10.30;;;;;;;13.12;100.00;99815.63;111122;1258;21986;-78
2023/11/09 11:10:00;;;;;;;24.30;11.00;;;;;;;13.12;100.00;99817.35;111074;1250;21976;-76
2023/11/09 11:12:40;;;;;;;22.30;10.30;;;;;;;13.03;100.00;99815.08;111382;1251;23022;-77
2023/11/09 11:15:24;;;;;;;;;;;;;;;12.81;99.15;99814.74;111295;1253;21947;-78
2023/11/09 11:18:19;;;;;;;14.80;7.70;;;;;;;12.50;99.12;99811.36;111067;1254;23075;-78
2023/11/09 11:21:35;;;;;;;11.50;6.90;;;;;;;12.34;99.87;99808.41;111261;1254;21969;-78
2023/11/09 11:24:42;;;;;;;17.80;9.10;;;;;;;12.20;100.00;99805.45;111277;1254;22507;-79
2023/11/09 11:27:56;;;;;;;12.70;6.70;;;;;;;12.11;100.00;99806.13;110792;1258;22571;-78
2023/11/09 11:30:41;;;;;;;18.80;9.70;;;;;;;12.04;100.00;99798.80;111308;1248;22196;-79
2023/11/09 11:33:21;;;;;;;24.10;10.60;;;;;;;11.96;100.00;99793.86;111931;1246;23755;-78
2023/11/09 11:35:56;;;;;;;12.50;5.90;;;;;;;11.95;100.00;99786.39;112092;1241;23676;-77
2023/11/09 11:38:44;;;;;;;74.80;43.10;;;;;;;11.96;100.00;99780.05;112389;1241;21939;-79
2023/11/09 11:41:23;;;;;;;112.60;69.50;;;;;;;12.00;100.00;99774.26;112654;1241;21972;-79
2023/11/09 11:44:13;;;;;;;36.30;16.80;;;;;;;12.01;100.00;99774.73;112695;1241;21947;-78
2023/11/09 11:47:02;;;;;;;34.70;15.10;;;;;;;12.00;100.00;99773.59;113271;1234;21951;-80
2023/11/09 11:49:45;;;;;;;37.90;15.70;;;;;;;11.95;100.00;99760.23;112337;1241;22024;-79
2023/11/09 11:52:35;;;;;;;27.30;12.30;;;;;;;12.03;100.00;99775.31;112529;1241;21958;-78
2023/11/09 11:55:27;;;;;;;18.00;8.50;;;;;;;12.07;100.00;99773.88;112001;1246;21995;-79
2023/11/09 11:58:20;;;;;;;24.20;10.40;;;;;;;12.06;100.00;99766.09;111524;1246;21988;-77
2023/11/09 12:01:03;;;;;;;29.90;12.20;;;;;;;12.04;100.00;99766.38;111293;1253;23226;-79
2023/11/09 12:03:57;;;;;;;17.90;9.20;;;;;;;12.02;100.00;99765.61;111040;1253;21988;-77
2023/11/09 12:06:40;;;;;;;32.60;13.80;;;;;;;12.06;100.00;99759.47;111079;1252;21982;-78
2023/11/09 12:09:18;;;;;;;26.10;11.70;;;;;;;12.11;100.00;99750.32;111333;1251;21974;-78
2023/11/09 12:12:12;;;;;;;23.70;10.10;;;;;;;12.12;100.00;99742.05;111393;1251;21981;-77
2023/11/09 12:14:49;;;;;;;21.60;9.90;;;;;;;12.11;100.00;99743.34;112100;1246;22416;-77
2023/11/09 12:17:50;;;;;;;12.20;6.70;;;;;;;12.12;100.00;99736.30;111656;1250;22104;-81
2023/11/09 12:20:32;;;;;;;22.20;10.00;;;;;;;12.16;100.00;99734.19;112270;1243;24314;-77
2023/11/09 12:23:10;;;;;;;17.00;8.70;;;;;;;12.18;100.00;99732.86;111623;1247;23751;-79
2023/11/09 12:25:56;;;;;;;15.10;6.20;;;;;;;12.16;99.97;99729.30;111857;1246;21951;-79
2023/11/09 12:28:37;;;;;;;17.40;7.60;;;;;;;12.10;99.41;99726.33;111949;1243;23033;-78
2023/11/09 12:31:13;;;;;;;12.40;6.10;;;;;;;12.05;99.00;99724.30;111315;1249;23382;-80
2023/11/09 12:34:17;;;;;;;13.10;6.80;;;;;;;12.04;98.64;99724.73;111014;1255;23597;-78
2023/11/09 12:37:09;;;;;;;10.90;5.20;;;;;;;12.03;98.83;99720.56;111672;1251;21990;-85
2023/11/09 12:40:41;;;;;;;13.20;5.50;;;;;;;12.04;99.37;99717.54;111694;1255;22940;-87
2023/11/09 12:44:05;;;;;;;8.30;5.90;;;;;;;12.04;99.34;99719.29;111432;1255;23740;-86
2023/11/09 12:47:52;;;;;;;10.70;5.70;;;;;;;11.95;98.78;99721.01;111241;1255;22841;-87
2023/11/09 12:51:28;;;;;;;12.60;7.90;;;;;;;11.92;98.96;99714.73;111803;1251;21960;-89
2023/11/09 12:54:54;;;;;;;;;;;;;;;;;;;;;
2023/11/09 12:58:29;;;;;;;11.40;5.90;;;;;;;11.91;99.36;99713.01;112018;1249;22008;-86
2023/11/09 13:01:52;;;;;;;8.70;5.50;;;;;;;11.89;99.76;99709.27;111195;1257;21960;-86
2023/11/09 13:05:42;;;;;;;9.50;5.50;;;;;;;11.88;99.98;99706.16;111294;1257;21977;-86
2023/11/09 13:08:47;;;;;;;14.00;6.60;;;;;;;11.91;100.00;99701.83;111377;1257;21973;-88
2023/11/09 13:15:55;;;;;;;;;;;;;;;;;;;;;
2023/11/09 13:18:51;;;;;;;10.90;5.50;;;;;;;11.89;100.00;99701.92;110531;1261;22298;-78
2023/11/09 13:21:28;;;;;;;13.40;6.40;;;;;;;11.95;100.00;99696.09;110554;1260;21983;-78
2023/11/09 13:24:09;;;;;;;6.60;5.10;;;;;;;11.91;100.00;99685.81;110679;1259;23699;-77
2023/11/09 13:26:49;;;;;;;8.40;6.10;;;;;;;11.90;100.00;99688.65;110798;1261;21980;-79
2023/11/09 13:29:49;;;;;;;;;;;;;;;;;;;;;